createdAt,value
2023-04-28T00:01:55.050Z,13.40
2023-04-28T00:04:22.783Z,12.20
2023-04-28T00:06:50.792Z,12.30
2023-04-28T00:11:46.847Z,12.30
2023-04-28T00:14:14.699Z,12.70
2023-04-28T00:16:42.549Z,12.40
2023-04-28T00:19:10.462Z,12.70
2023-04-28T00:21:37.755Z,12.70
2023-04-28T00:24:05.976Z,12.20
2023-04-28T00:26:33.434Z,12.30
2023-04-28T00:29:00.810Z,12.60
2023-04-28T00:31:28.292Z,12.80
2023-04-28T00:33:55.780Z,12.50
2023-04-28T00:36:23.705Z,12.40
2023-04-28T00:38:51.428Z,12.30
2023-04-28T00:41:18.755Z,12.50
2023-04-28T00:43:50.081Z,12.70
2023-04-28T00:46:23.269Z,14.50
2023-04-28T00:48:51.263Z,12.50
2023-04-28T00:51:18.699Z,12.90
2023-04-28T00:53:46.916Z,12.90
2023-04-28T00:56:15.078Z,13.50
2023-04-28T00:58:43.661Z,12.60
2023-04-28T01:01:11.218Z,12.60
2023-04-28T01:03:41.322Z,12.60
2023-04-28T01:06:10.378Z,12.50
2023-04-28T01:08:39.523Z,13.10
2023-04-28T01:11:16.406Z,12.40
2023-04-28T01:14:02.668Z,12.50
2023-04-28T01:16:36.127Z,12.50
2023-04-28T01:19:05.405Z,12.30
2023-04-28T01:21:34.459Z,12.70
2023-04-28T01:24:10.797Z,12.60
2023-04-28T01:26:38.085Z,14.30
2023-04-28T01:29:05.840Z,12.60
2023-04-28T01:31:33.333Z,12.60
2023-04-28T01:34:01.037Z,12.70
2023-04-28T01:36:28.651Z,12.70
2023-04-28T01:38:56.531Z,12.80
2023-04-28T01:41:25.440Z,12.80
2023-04-28T01:43:52.821Z,12.70
2023-04-28T01:46:20.501Z,12.80
2023-04-28T01:48:48.117Z,12.70
2023-04-28T01:51:15.841Z,12.70
2023-04-28T01:53:43.162Z,12.70
2023-04-28T01:56:12.514Z,14.10
2023-04-28T01:58:40.085Z,13.90
2023-04-28T02:01:08.501Z,12.70
2023-04-28T02:03:36.341Z,12.80
2023-04-28T02:06:05.155Z,12.70
2023-04-28T02:08:32.637Z,12.60
2023-04-28T02:11:01.596Z,12.70
2023-04-28T02:13:29.108Z,13.80
2023-04-28T02:16:01.750Z,12.60
2023-04-28T02:18:30.409Z,12.80
2023-04-28T02:21:10.027Z,12.70
2023-04-28T02:23:37.742Z,12.70
2023-04-28T02:26:06.767Z,13.00
2023-04-28T02:28:34.263Z,12.70
2023-04-28T02:31:09.537Z,12.80
2023-04-28T02:33:38.093Z,12.80
2023-04-28T02:36:06.682Z,12.60
2023-04-28T02:38:34.350Z,12.60
2023-04-28T02:41:06.450Z,12.70
2023-04-28T02:43:34.373Z,12.70
2023-04-28T02:46:03.788Z,12.90
2023-04-28T02:48:31.757Z,12.60
2023-04-28T02:50:59.182Z,12.80
2023-04-28T02:53:26.660Z,12.90
2023-04-28T02:55:54.288Z,12.80
2023-04-28T02:58:21.770Z,12.80
2023-04-28T03:00:49.325Z,13.20
2023-04-28T03:03:17.842Z,12.90
2023-04-28T03:05:46.099Z,12.40
2023-04-28T03:08:13.549Z,12.70
2023-04-28T03:10:41.101Z,12.70
2023-04-28T03:13:08.661Z,13.00
2023-04-28T03:15:36.246Z,13.10
2023-04-28T03:18:04.030Z,13.70
2023-04-28T03:20:31.481Z,12.70
2023-04-28T03:22:58.981Z,12.80
2023-04-28T03:25:26.393Z,12.90
2023-04-28T03:27:56.029Z,12.80
2023-04-28T03:30:23.383Z,14.10
2023-04-28T03:32:50.912Z,12.80
2023-04-28T03:35:18.341Z,13.00
2023-04-28T03:37:45.902Z,14.00
2023-04-28T03:40:14.030Z,13.00
2023-04-28T03:43:00.239Z,12.80
2023-04-28T03:45:33.308Z,12.70
2023-04-28T03:48:00.790Z,13.10
2023-04-28T03:50:28.753Z,12.60
2023-04-28T03:52:57.186Z,12.70
2023-04-28T03:55:26.244Z,12.70
2023-04-28T03:57:54.788Z,12.60
2023-04-28T04:00:22.207Z,12.90
2023-04-28T04:02:52.834Z,12.60
2023-04-28T04:05:20.808Z,12.70
2023-04-28T04:07:48.457Z,13.10
2023-04-28T04:10:15.865Z,12.50
2023-04-28T04:12:45.284Z,12.50
2023-04-28T04:15:12.921Z,12.30
2023-04-28T04:17:42.772Z,12.20
2023-04-28T04:20:10.558Z,13.90
2023-04-28T04:22:37.889Z,12.30
2023-04-28T04:25:05.641Z,13.10
2023-04-28T04:27:34.667Z,12.30
2023-04-28T04:30:02.309Z,13.80
2023-04-28T04:32:29.643Z,12.30
2023-04-28T04:34:57.505Z,12.40
2023-04-28T04:37:25.460Z,12.30
2023-04-28T04:39:58.655Z,12.20
2023-04-28T04:42:26.895Z,12.40
2023-04-28T04:45:08.186Z,12.40
2023-04-28T04:47:36.935Z,12.40
2023-04-28T04:50:04.593Z,12.20
2023-04-28T04:52:32.129Z,12.30
2023-04-28T04:55:00.184Z,12.30
2023-04-28T04:57:27.795Z,12.60
2023-04-28T05:00:17.010Z,12.30
2023-04-28T05:02:45.474Z,12.30
2023-04-28T05:05:21.143Z,12.40
2023-04-28T05:07:57.725Z,12.30
2023-04-28T05:10:25.460Z,12.30
2023-04-28T05:12:53.005Z,12.30
2023-04-28T05:15:20.371Z,12.40
2023-04-28T05:18:11.894Z,12.30
2023-04-28T05:20:39.479Z,12.40
2023-04-28T05:23:07.470Z,12.60
2023-04-28T05:25:35.031Z,12.30
2023-04-28T05:28:07.411Z,12.40
2023-04-28T05:30:35.606Z,12.40
2023-04-28T05:33:03.378Z,12.10
2023-04-28T05:35:31.640Z,12.30
2023-04-28T05:37:59.646Z,12.50
2023-04-28T05:40:28.152Z,13.70
2023-04-28T05:42:56.564Z,13.80
2023-04-28T05:45:24.022Z,12.50
2023-04-28T05:47:51.744Z,13.90
2023-04-28T05:50:19.402Z,12.50
2023-04-28T05:52:46.799Z,12.50
2023-04-28T05:55:14.603Z,12.50
2023-04-28T05:57:52.286Z,12.60
2023-04-28T06:00:22.059Z,13.20
2023-04-28T06:02:50.002Z,12.60
2023-04-28T06:05:18.425Z,12.60
2023-04-28T06:07:49.711Z,12.60
2023-04-28T06:10:18.785Z,13.50
2023-04-28T06:12:46.438Z,12.60
2023-04-28T06:15:14.239Z,12.70
2023-04-28T06:17:42.878Z,13.30
2023-04-28T06:20:13.191Z,12.80
2023-04-28T06:22:41.522Z,13.00
2023-04-28T06:25:09.465Z,12.50
2023-04-28T06:27:44.568Z,12.90
2023-04-28T06:30:19.503Z,13.00
2023-04-28T06:32:47.113Z,13.00
2023-04-28T06:35:17.489Z,13.10
2023-04-28T06:37:44.900Z,13.00
2023-04-28T06:40:12.498Z,13.60
2023-04-28T06:42:44.028Z,13.10
2023-04-28T06:45:14.441Z,12.90
2023-04-28T06:47:41.908Z,13.50
2023-04-28T06:50:10.467Z,13.00
2023-04-28T06:52:40.756Z,13.30
2023-04-28T06:55:12.289Z,13.30
2023-04-28T06:57:42.191Z,13.30
2023-04-28T07:00:11.068Z,13.40
2023-04-28T07:02:38.776Z,13.30
2023-04-28T07:05:06.837Z,13.70
2023-04-28T07:07:34.660Z,13.90
2023-04-28T07:10:02.259Z,13.40
2023-04-28T07:12:29.850Z,13.40
2023-04-28T07:14:57.261Z,13.40
2023-04-28T07:17:24.746Z,13.40
2023-04-28T07:19:52.169Z,13.40
2023-04-28T07:22:20.629Z,13.80
2023-04-28T07:24:47.959Z,13.50
2023-04-28T07:27:15.528Z,13.50
2023-04-28T07:29:42.787Z,13.90
2023-04-28T07:32:10.598Z,13.50
2023-04-28T07:34:38.514Z,13.50
2023-04-28T07:37:07.507Z,13.50
2023-04-28T07:39:35.567Z,13.50
2023-04-28T07:42:03.865Z,13.70
2023-04-28T07:44:31.691Z,13.50
2023-04-28T07:47:02.953Z,14.00
2023-04-28T07:49:30.759Z,13.60
2023-04-28T07:51:58.113Z,14.10
2023-04-28T07:54:26.120Z,13.90
2023-04-28T07:56:53.694Z,14.10
2023-04-28T07:59:21.268Z,13.70
2023-04-28T08:01:48.724Z,13.70
2023-04-28T08:04:16.756Z,13.50
2023-04-28T08:06:44.459Z,13.70
2023-04-28T08:09:11.899Z,14.00
2023-04-28T08:11:40.804Z,13.90
2023-04-28T08:14:08.201Z,14.10
2023-04-28T08:16:38.502Z,14.10
2023-04-28T08:19:06.120Z,14.20
2023-04-28T08:21:34.336Z,14.40
2023-04-28T08:24:01.937Z,14.50
2023-04-28T08:26:31.282Z,14.40
2023-04-28T08:28:58.777Z,14.60
2023-04-28T08:31:26.253Z,14.70
2023-04-28T08:33:55.555Z,14.70
2023-04-28T08:36:31.732Z,15.00
2023-04-28T08:39:03.259Z,16.20
2023-04-28T08:41:33.409Z,14.70
2023-04-28T08:44:00.764Z,14.80
2023-04-28T08:46:29.204Z,15.10
2023-04-28T08:49:02.262Z,14.90
2023-04-28T08:51:40.887Z,15.80
2023-04-28T08:54:25.529Z,14.90
2023-04-28T08:56:57.187Z,14.80
2023-04-28T08:59:24.833Z,15.70
2023-04-28T09:01:52.717Z,14.90
2023-04-28T09:04:21.292Z,14.90
2023-04-28T09:06:49.191Z,16.90
2023-04-28T09:09:26.882Z,15.00
2023-04-28T09:11:56.188Z,15.00
2023-04-28T09:14:24.171Z,16.30
2023-04-28T09:16:52.481Z,15.20
2023-04-28T09:19:20.191Z,15.30
2023-04-28T09:21:56.032Z,15.70
2023-04-28T09:24:31.571Z,15.50
2023-04-28T09:27:02.453Z,15.60
2023-04-28T09:29:31.870Z,15.50
2023-04-28T09:32:19.507Z,15.40
2023-04-28T09:34:49.068Z,15.40
2023-04-28T09:37:20.723Z,15.40
2023-04-28T09:39:50.944Z,15.30
2023-04-28T09:42:42.066Z,15.60
2023-04-28T09:45:11.860Z,15.30
2023-04-28T09:47:47.151Z,15.30
2023-04-28T09:50:17.312Z,15.10
2023-04-28T09:52:49.080Z,15.40
2023-04-28T09:55:17.963Z,15.10
2023-04-28T09:57:49.812Z,15.10
2023-04-28T10:00:18.852Z,15.30
2023-04-28T10:02:46.615Z,15.10
2023-04-28T10:05:17.238Z,15.10
2023-04-28T10:07:46.587Z,15.10
2023-04-28T10:10:14.878Z,15.20
2023-04-28T10:12:44.029Z,15.30
2023-04-28T10:15:13.545Z,15.20
2023-04-28T10:17:41.137Z,15.10
2023-04-28T10:20:11.355Z,15.70
2023-04-28T10:22:47.583Z,15.10
2023-04-28T10:25:32.115Z,15.20
2023-04-28T10:28:01.110Z,15.40
2023-04-28T10:30:30.320Z,15.70
2023-04-28T10:33:06.826Z,15.70
2023-04-28T10:35:36.409Z,15.80
2023-04-28T10:38:10.315Z,15.90
2023-04-28T10:40:39.397Z,16.00
2023-04-28T10:43:08.637Z,15.60
2023-04-28T10:45:56.512Z,15.70
2023-04-28T10:48:47.579Z,15.70
2023-04-28T10:51:14.865Z,15.70
2023-04-28T10:53:53.693Z,16.10
2023-04-28T10:56:24.980Z,15.50
2023-04-28T10:58:53.136Z,15.40
2023-04-28T11:01:26.346Z,15.30
2023-04-28T11:04:17.974Z,15.30
2023-04-28T11:06:47.041Z,15.30
2023-04-28T11:09:19.901Z,15.40
2023-04-28T11:12:06.958Z,15.70
2023-04-28T11:14:36.182Z,15.90
2023-04-28T11:17:13.587Z,16.00
2023-04-28T11:19:43.982Z,16.00
2023-04-28T11:22:15.692Z,16.00
2023-04-28T11:24:56.803Z,16.30
2023-04-28T11:27:25.652Z,16.00
2023-04-28T11:29:53.660Z,16.50
2023-04-28T11:32:34.962Z,16.20
2023-04-28T11:35:04.969Z,15.90
2023-04-28T11:37:32.414Z,16.60
2023-04-28T11:40:11.044Z,16.80
2023-04-28T11:42:48.529Z,16.80
2023-04-28T11:45:15.999Z,17.00
2023-04-28T11:47:43.430Z,16.90
2023-04-28T11:50:11.120Z,16.80
2023-04-28T11:52:53.592Z,16.60
2023-04-28T11:55:21.526Z,16.40
2023-04-28T11:57:49.034Z,17.30
2023-04-28T12:00:21.915Z,16.00
2023-04-28T12:02:49.784Z,15.90
2023-04-28T12:05:17.646Z,16.20
2023-04-28T12:10:16.683Z,16.00
2023-04-28T12:12:51.714Z,16.20
2023-04-28T12:15:22.186Z,16.50
2023-04-28T12:17:51.615Z,17.10
2023-04-28T12:20:38.879Z,18.00
2023-04-28T12:23:07.827Z,17.60
2023-04-28T12:25:44.445Z,17.30
2023-04-28T12:28:11.978Z,17.30
2023-04-28T12:30:41.848Z,17.50
2023-04-28T12:33:26.946Z,17.60
2023-04-28T12:35:55.426Z,17.80
2023-04-28T12:38:26.029Z,17.90
2023-04-28T12:40:53.401Z,17.80
2023-04-28T12:45:53.225Z,17.60
2023-04-28T12:48:21.156Z,17.50
2023-04-28T12:50:48.653Z,17.40
2023-04-28T12:53:16.179Z,17.50
2023-04-28T12:55:44.074Z,17.50
2023-04-28T12:58:11.501Z,17.60
2023-04-28T13:00:39.320Z,18.30
2023-04-28T13:03:06.942Z,17.80
2023-04-28T13:05:35.062Z,17.90
2023-04-28T13:08:02.524Z,17.90
2023-04-28T13:10:29.875Z,17.80
2023-04-28T13:12:57.224Z,17.70
2023-04-28T13:15:24.847Z,17.50
2023-04-28T13:17:52.183Z,17.50
2023-04-28T13:22:47.315Z,17.40
2023-04-28T13:25:15.265Z,17.50
2023-04-28T13:30:11.689Z,17.70
2023-04-28T13:32:39.012Z,17.80
2023-04-28T13:35:07.082Z,18.40
2023-04-28T13:37:34.389Z,18.60
2023-04-28T13:40:04.196Z,18.70
2023-04-28T13:42:31.749Z,18.80
2023-04-28T13:44:59.023Z,19.10
2023-04-28T13:47:26.684Z,19.20
2023-04-28T13:49:54.044Z,19.10
2023-04-28T13:54:50.010Z,19.20
2023-04-28T13:57:17.490Z,19.20
2023-04-28T13:59:45.581Z,19.10
2023-04-28T14:02:13.160Z,18.80
2023-04-28T14:04:40.635Z,18.70
2023-04-28T14:07:08.826Z,18.40
2023-04-28T14:09:36.192Z,18.30
2023-04-28T14:12:03.625Z,18.60
2023-04-28T14:14:31.116Z,19.20
2023-04-28T14:16:59.027Z,19.90
2023-04-28T14:21:55.572Z,20.50
2023-04-28T14:24:23.538Z,20.40
2023-04-28T14:26:51.157Z,20.20
2023-04-28T14:29:18.573Z,19.60
2023-04-28T14:31:46.135Z,19.30
2023-04-28T14:34:13.644Z,19.20
2023-04-28T14:36:42.250Z,19.00
2023-04-28T14:41:37.439Z,18.60
2023-04-28T14:44:04.801Z,18.40
2023-04-28T14:46:32.282Z,18.40
2023-04-28T14:51:27.736Z,18.40
2023-04-28T14:53:55.249Z,19.10
2023-04-28T14:56:23.031Z,18.60
2023-04-28T15:01:19.160Z,18.90
2023-04-28T15:06:15.007Z,19.20
2023-04-28T15:08:42.340Z,19.30
2023-04-28T15:11:10.874Z,19.50
2023-04-28T15:13:39.109Z,19.80
2023-04-28T15:16:07.554Z,20.00
2023-04-28T15:18:34.853Z,20.00
2023-04-28T15:21:02.583Z,20.00
2023-04-28T15:23:29.912Z,19.90
2023-04-28T15:25:57.241Z,19.70
2023-04-28T15:28:25.956Z,19.50
2023-04-28T15:30:53.590Z,19.20
2023-04-28T15:33:24.343Z,19.10
2023-04-28T15:38:19.865Z,18.90
2023-04-28T15:40:47.805Z,18.70
2023-04-28T15:43:15.500Z,18.60
2023-04-28T15:45:44.930Z,18.50
2023-04-28T15:48:12.587Z,18.50
2023-04-28T15:50:40.344Z,18.80
2023-04-28T15:53:08.067Z,18.60
2023-04-28T16:00:33.241Z,18.00
2023-04-28T16:03:01.418Z,18.10
2023-04-28T16:05:29.339Z,18.50
2023-04-28T16:07:56.665Z,18.50
2023-04-28T16:10:24.166Z,18.50
2023-04-28T16:12:51.718Z,18.50
2023-04-28T16:15:19.103Z,18.70
2023-04-28T16:17:46.453Z,18.50
2023-04-28T16:20:13.785Z,18.60
2023-04-28T16:22:41.699Z,18.60
2023-04-28T16:25:10.474Z,18.80
2023-04-28T16:30:07.436Z,19.20
2023-04-28T16:32:37.996Z,19.20
2023-04-28T16:35:06.471Z,19.00
2023-04-28T16:37:36.302Z,18.80
2023-04-28T16:40:04.605Z,18.50
2023-04-28T16:42:31.925Z,18.30
2023-04-28T16:44:59.792Z,18.30
2023-04-28T16:47:27.300Z,18.10
2023-04-28T16:49:54.650Z,18.20
2023-04-28T16:52:22.215Z,18.30
2023-04-28T16:54:49.487Z,17.80
2023-04-28T16:57:16.877Z,17.80
2023-04-28T16:59:44.248Z,17.80
2023-04-28T17:02:11.829Z,17.80
2023-04-28T17:04:39.408Z,17.80
2023-04-28T17:07:07.474Z,17.90
2023-04-28T17:09:34.796Z,17.90
2023-04-28T17:12:03.680Z,17.90
2023-04-28T17:14:31.167Z,17.90
2023-04-28T17:16:58.496Z,17.80
2023-04-28T17:21:55.685Z,17.80
2023-04-28T17:24:23.798Z,17.80
2023-04-28T17:26:51.246Z,17.80
2023-04-28T17:29:19.052Z,17.90
2023-04-28T17:31:46.883Z,17.80
2023-04-28T17:34:14.577Z,17.80
2023-04-28T17:39:10.860Z,17.80
2023-04-28T17:41:38.832Z,17.80
2023-04-28T17:44:06.739Z,17.70
2023-04-28T17:46:34.125Z,17.80
2023-04-28T17:49:01.550Z,17.70
2023-04-28T17:51:29.510Z,17.50
2023-04-28T17:53:57.201Z,17.60
2023-04-28T17:58:52.573Z,17.40
2023-04-28T18:01:19.926Z,17.50
2023-04-28T18:03:48.261Z,17.40
2023-04-28T18:06:16.380Z,17.10
2023-04-28T18:08:43.728Z,17.30
2023-04-28T18:11:11.905Z,17.40
2023-04-28T18:13:39.582Z,17.40
2023-04-28T18:16:10.808Z,17.40
2023-04-28T18:18:38.248Z,17.40
2023-04-28T18:21:06.731Z,16.80
2023-04-28T18:26:01.834Z,17.30
2023-04-28T18:28:29.434Z,17.20
2023-04-28T18:30:56.715Z,17.10
2023-04-28T18:33:28.517Z,17.50
2023-04-28T18:36:01.715Z,17.10
2023-04-28T18:38:30.972Z,17.00
2023-04-28T18:40:58.400Z,17.00
2023-04-28T18:43:27.874Z,16.90
2023-04-28T18:45:55.283Z,16.90
2023-04-28T18:48:23.511Z,17.00
2023-04-28T18:50:53.826Z,16.90
2023-04-28T18:53:21.305Z,16.90
2023-04-28T18:55:48.916Z,16.90
2023-04-28T19:00:45.335Z,16.70
2023-04-28T19:05:45.385Z,16.80
2023-04-28T19:08:13.235Z,16.70
2023-04-28T19:10:41.740Z,16.60
2023-04-28T19:13:09.001Z,16.50
2023-04-28T19:18:05.283Z,16.30
2023-04-28T19:20:34.377Z,16.20
2023-04-28T19:23:03.097Z,16.60
2023-04-28T19:25:33.415Z,16.00
2023-04-28T19:28:00.892Z,15.90
2023-04-28T19:30:28.450Z,15.90
2023-04-28T19:32:56.317Z,15.70
2023-04-28T19:35:24.152Z,15.60
2023-04-28T19:37:51.873Z,15.40
2023-04-28T19:40:19.613Z,15.40
2023-04-28T19:42:47.234Z,15.20
2023-04-28T19:45:15.319Z,15.20
2023-04-28T19:47:43.055Z,15.00
2023-04-28T19:50:11.001Z,15.30
2023-04-28T19:52:39.138Z,14.90
2023-04-28T19:55:08.823Z,14.70
2023-04-28T19:57:36.547Z,14.60
2023-04-28T20:00:04.901Z,14.50
2023-04-28T20:02:35.469Z,14.40
2023-04-28T20:05:04.191Z,14.40
2023-04-28T20:07:32.057Z,14.20
2023-04-28T20:10:00.833Z,14.30
2023-04-28T20:12:28.956Z,15.50
2023-04-28T20:14:57.944Z,14.60
2023-04-28T20:17:25.448Z,14.00
2023-04-28T20:19:53.028Z,13.90
2023-04-28T20:22:20.724Z,13.80
2023-04-28T20:24:48.124Z,13.80
2023-04-28T20:27:15.700Z,13.80
2023-04-28T20:29:44.129Z,13.70
2023-04-28T20:32:11.680Z,13.60
2023-04-28T20:34:39.458Z,13.60
2023-04-28T20:37:08.084Z,14.80
2023-04-28T20:39:35.476Z,13.40
2023-04-28T20:42:03.113Z,13.60
2023-04-28T20:44:30.828Z,13.10
2023-04-28T20:46:59.169Z,13.30
2023-04-28T20:49:27.060Z,13.50
2023-04-28T20:52:01.595Z,13.20
2023-04-28T20:56:56.781Z,13.10
2023-04-28T20:59:24.216Z,13.10
2023-04-28T21:01:51.638Z,12.90
2023-04-28T21:04:19.218Z,12.90
2023-04-28T21:06:50.234Z,12.90
2023-04-28T21:09:17.761Z,13.10
2023-04-28T21:11:45.114Z,13.00
2023-04-28T21:14:15.380Z,12.80
2023-04-28T21:16:45.704Z,12.70
2023-04-28T21:19:13.337Z,11.60
2023-04-28T21:21:41.057Z,13.50
2023-04-28T21:24:10.286Z,12.60
2023-04-28T21:26:37.806Z,13.30
2023-04-28T21:29:05.400Z,12.60
2023-04-28T21:31:32.862Z,12.50
2023-04-28T21:34:00.248Z,12.40
2023-04-28T21:36:28.291Z,12.60
2023-04-28T21:38:55.870Z,12.30
2023-04-28T21:41:25.157Z,12.30
2023-04-28T21:43:52.872Z,12.40
2023-04-28T21:46:20.330Z,12.20
2023-04-28T21:48:48.015Z,12.20
2023-04-28T21:51:16.824Z,12.00
2023-04-28T21:53:44.150Z,12.60
2023-04-28T21:56:11.803Z,12.00
2023-04-28T21:58:39.256Z,12.00
2023-04-28T22:01:08.134Z,12.00
2023-04-28T22:03:36.407Z,11.90
2023-04-28T22:06:04.111Z,12.00
2023-04-28T22:08:31.880Z,12.10
2023-04-28T22:11:00.430Z,11.90
2023-04-28T22:13:28.249Z,11.90
2023-04-28T22:15:56.422Z,11.80
2023-04-28T22:18:24.059Z,11.70
2023-04-28T22:20:51.456Z,13.20
2023-04-28T22:23:18.854Z,11.70
2023-04-28T22:25:46.402Z,11.80
2023-04-28T22:28:14.024Z,11.70
2023-04-28T22:30:42.510Z,12.30
2023-04-28T22:33:10.339Z,11.70
2023-04-28T22:35:37.715Z,11.90
2023-04-28T22:38:05.469Z,12.00
2023-04-28T22:40:33.077Z,11.50
2023-04-28T22:43:00.461Z,11.50
2023-04-28T22:45:28.704Z,11.50
2023-04-28T22:47:56.841Z,11.30
2023-04-28T22:50:25.117Z,11.30
2023-04-28T22:52:52.569Z,11.40
2023-04-28T22:55:20.330Z,11.30
2023-04-28T22:57:47.714Z,11.30
2023-04-28T23:00:16.312Z,11.20
2023-04-28T23:02:44.967Z,11.20
2023-04-28T23:05:12.763Z,11.20
2023-04-28T23:07:40.279Z,11.10
2023-04-28T23:10:08.455Z,11.10
2023-04-28T23:12:35.785Z,11.10
2023-04-28T23:15:03.450Z,10.90
2023-04-28T23:17:31.024Z,11.00
2023-04-28T23:19:58.418Z,11.20
2023-04-28T23:22:25.800Z,11.00
2023-04-28T23:24:53.320Z,10.80
2023-04-28T23:27:20.785Z,11.00
2023-04-28T23:29:49.480Z,11.10
2023-04-28T23:32:17.867Z,10.90
2023-04-28T23:37:13.046Z,10.80
2023-04-28T23:39:40.370Z,10.50
2023-04-28T23:42:07.900Z,10.90
2023-04-28T23:44:35.249Z,10.80
2023-04-28T23:47:02.578Z,10.80
2023-04-28T23:49:30.044Z,10.70
2023-04-28T23:51:57.374Z,10.80
2023-04-28T23:54:24.683Z,10.70
2023-04-28T23:56:51.984Z,11.70
2023-04-28T23:59:20.913Z,12.20
